Time;durP1;ratioP1;P1;durP2;ratioP2;P2;SDS_P1;SDS_P2;PMS_P1;PMS_P2;Temp;Humidity;BMP_temperature;BMP_pressure;BME280_temperature;BME280_humidity;BME280_pressure;Samples;Min_cycle;Max_cycle;Signal;HPM_P1;HPM_P2
2023/05/04 00:01:35;;;;;;;9.73;6.07;;;;;;;;;;5047368;28;20220;-66
2023/05/04 00:04:01;;;;;;;6.57;4.97;;;;;;;;;;5035636;28;20190;-66
2023/05/04 00:06:26;;;;;;;10.27;5.77;;;;;;;;;;5032645;28;20281;-67
2023/05/04 00:08:52;;;;;;;6.67;5.03;;;;;;;;;;5040062;28;20265;-66
2023/05/04 00:11:17;;;;;;;10.10;5.73;;;;;;;;;;5032175;28;20609;-66
2023/05/04 00:13:42;;;;;;;13.03;6.30;;;;;;;;;;5042253;28;20213;-67
2023/05/04 00:16:08;;;;;;;7.93;5.30;;;;;;;;;;5045707;28;20198;-67
2023/05/04 00:18:33;;;;;;;10.53;5.83;;;;;;;;;;5041601;28;20597;-66
2023/05/04 00:20:58;;;;;;;9.97;5.03;;;;;;;;;;5051116;28;20190;-66
2023/05/04 00:23:24;;;;;;;11.53;5.80;;;;;;;;;;5043991;28;20239;-66
2023/05/04 00:25:49;;;;;;;10.80;5.87;;;;;;;;;;5041186;28;20194;-66
2023/05/04 00:28:14;;;;;;;12.47;5.67;;;;;;;;;;5040276;28;20595;-66
2023/05/04 00:30:40;;;;;;;10.80;5.97;;;;;;;;;;5042031;28;20189;-66
2023/05/04 00:33:05;;;;;;;8.27;5.43;;;;;;;;;;5037672;28;20212;-66
2023/05/04 00:35:31;;;;;;;10.33;6.07;;;;;;;;;;5031325;28;20190;-67
2023/05/04 00:37:56;;;;;;;12.03;5.90;;;;;;;;;;5046645;28;20282;-67
2023/05/04 00:40:22;;;;;;;9.03;5.57;;;;;;;;;;5045844;28;20546;-67
2023/05/04 00:42:47;;;;;;;9.67;5.90;;;;;;;;;;5042313;28;20185;-67
2023/05/04 00:45:13;;;;;;;11.87;5.73;;;;;;;;;;5041495;28;20264;-66
2023/05/04 00:47:40;;;;;;;11.70;5.90;;;;;;;;;;5044411;28;20178;-67
2023/05/04 00:50:06;;;;;;;11.93;5.90;;;;;;;;;;5050307;28;20274;-67
2023/05/04 00:52:32;;;;;;;9.93;5.70;;;;;;;;;;5033488;28;20665;-66
2023/05/04 00:55:00;;;;;;;11.87;5.53;;;;;;;;;;5047989;28;20224;-66
2023/05/04 00:57:25;;;;;;;12.87;6.33;;;;;;;;;;5048434;28;20608;-66
2023/05/04 00:59:52;;;;;;;8.50;5.50;;;;;;;;;;5046932;28;20193;-67
2023/05/04 01:02:19;;;;;;;9.53;6.13;;;;;;;;;;5050046;28;20248;-66
2023/05/04 01:04:44;;;;;;;11.00;6.73;;;;;;;;;;5035914;28;20543;-65
2023/05/04 01:07:21;;;;;;;9.70;6.13;;;;;;;;;;5040939;28;20273;-65
2023/05/04 01:09:56;;;;;;;12.83;6.47;;;;;;;;;;5041086;28;20195;-66
2023/05/04 01:12:32;;;;;;;10.17;6.47;;;;;;;;;;5050061;28;20195;-65
2023/05/04 01:14:59;;;;;;;9.23;5.97;;;;;;;;;;5042043;28;20217;-65
2023/05/04 01:17:25;;;;;;;13.43;6.63;;;;;;;;;;5037220;28;20264;-66
2023/05/04 01:19:52;;;;;;;14.20;6.93;;;;;;;;;;5036504;28;20290;-65
2023/05/04 01:22:18;;;;;;;9.33;6.77;;;;;;;;;;5032003;28;20200;-65
2023/05/04 01:24:44;;;;;;;11.27;7.10;;;;;;;;;;5047526;28;20190;-66
2023/05/04 01:27:41;;;;;;;11.27;6.57;;;;;;;;;;5036810;28;20363;-66
2023/05/04 01:30:16;;;;;;;10.53;5.80;;;;;;;;;;5049165;28;20186;-66
2023/05/04 01:32:41;;;;;;;9.87;6.23;;;;;;;;;;5038188;28;20197;-65
2023/05/04 01:35:10;;;;;;;14.60;7.20;;;;;;;;;;5030197;28;20190;-65
2023/05/04 01:37:35;;;;;;;12.30;6.70;;;;;;;;;;5045850;28;20193;-65
2023/05/04 01:40:01;;;;;;;12.17;6.67;;;;;;;;;;5051333;28;20276;-66
2023/05/04 01:42:26;;;;;;;11.90;6.93;;;;;;;;;;5034659;28;20193;-66
2023/05/04 01:44:51;;;;;;;11.50;7.50;;;;;;;;;;5040142;28;20186;-66
2023/05/04 01:47:17;;;;;;;14.43;7.43;;;;;;;;;;5042755;28;20262;-66
2023/05/04 01:49:42;;;;;;;11.40;6.73;;;;;;;;;;5042287;28;20204;-66
2023/05/04 01:52:08;;;;;;;12.00;7.70;;;;;;;;;;5041527;28;20232;-66
2023/05/04 01:54:33;;;;;;;9.47;7.23;;;;;;;;;;5031517;28;20595;-66
2023/05/04 01:56:58;;;;;;;14.57;7.40;;;;;;;;;;5029415;28;20226;-66
2023/05/04 01:59:24;;;;;;;15.20;7.50;;;;;;;;;;5042251;28;20197;-67
2023/05/04 02:01:49;;;;;;;16.60;8.07;;;;;;;;;;5029145;28;20758;-66
2023/05/04 02:04:15;;;;;;;14.17;7.53;;;;;;;;;;5042957;28;20239;-66
2023/05/04 02:06:40;;;;;;;13.13;7.70;;;;;;;;;;5033893;28;20550;-67
2023/05/04 02:09:05;;;;;;;13.63;7.93;;;;;;;;;;5049111;28;20195;-67
2023/05/04 02:11:31;;;;;;;13.27;7.83;;;;;;;;;;5034721;28;20193;-66
2023/05/04 02:13:56;;;;;;;12.73;8.30;;;;;;;;;;5048582;28;20346;-67
2023/05/04 02:16:22;;;;;;;11.57;7.80;;;;;;;;;;5047647;28;20185;-67
2023/05/04 02:18:47;;;;;;;12.37;7.83;;;;;;;;;;5047989;28;20185;-66
2023/05/04 02:21:12;;;;;;;12.27;7.73;;;;;;;;;;5038571;28;20178;-67
2023/05/04 02:23:38;;;;;;;14.43;8.10;;;;;;;;;;5040768;28;20279;-67
2023/05/04 02:26:03;;;;;;;16.50;8.17;;;;;;;;;;5052674;28;20191;-67
2023/05/04 02:28:28;;;;;;;16.43;8.47;;;;;;;;;;5047164;28;20182;-67
2023/05/04 02:30:54;;;;;;;14.87;8.77;;;;;;;;;;5038531;28;20225;-67
2023/05/04 02:33:19;;;;;;;15.07;8.63;;;;;;;;;;5030385;28;20229;-66
2023/05/04 02:35:45;;;;;;;15.00;8.60;;;;;;;;;;5043438;28;20225;-66
2023/05/04 02:38:10;;;;;;;14.97;8.73;;;;;;;;;;5039807;28;20288;-66
2023/05/04 02:40:35;;;;;;;13.20;8.97;;;;;;;;;;5046918;28;20217;-66
2023/05/04 02:43:01;;;;;;;17.57;9.00;;;;;;;;;;5041233;28;20202;-66
2023/05/04 02:45:26;;;;;;;16.00;9.53;;;;;;;;;;5034798;28;20221;-67
2023/05/04 02:47:51;;;;;;;15.83;9.10;;;;;;;;;;5043239;28;20190;-67
2023/05/04 02:50:17;;;;;;;15.73;9.57;;;;;;;;;;5039987;28;20201;-67
2023/05/04 02:52:42;;;;;;;16.17;9.60;;;;;;;;;;5044572;28;20181;-67
2023/05/04 02:55:08;;;;;;;18.60;9.50;;;;;;;;;;5047492;28;20200;-67
2023/05/04 02:57:34;;;;;;;16.57;9.63;;;;;;;;;;5045756;28;20276;-67
2023/05/04 02:59:59;;;;;;;15.73;10.27;;;;;;;;;;5037569;28;20178;-67
2023/05/04 03:02:24;;;;;;;16.87;10.97;;;;;;;;;;5039785;28;20700;-67
2023/05/04 03:04:50;;;;;;;14.80;10.13;;;;;;;;;;5037230;28;20182;-67
2023/05/04 03:07:15;;;;;;;18.10;10.87;;;;;;;;;;5038543;28;20194;-67
2023/05/04 03:09:40;;;;;;;14.67;10.03;;;;;;;;;;5032848;28;20576;-66
2023/05/04 03:12:06;;;;;;;17.20;10.17;;;;;;;;;;5028236;28;20202;-67
2023/05/04 03:14:31;;;;;;;17.00;10.27;;;;;;;;;;5035880;28;20213;-67
2023/05/04 03:16:57;;;;;;;18.53;11.67;;;;;;;;;;5041144;28;20723;-67
2023/05/04 03:19:22;;;;;;;17.90;10.63;;;;;;;;;;5046550;28;20185;-67
2023/05/04 03:21:48;;;;;;;15.13;10.53;;;;;;;;;;5048726;28;20188;-67
2023/05/04 03:24:16;;;;;;;19.87;10.43;;;;;;;;;;5050490;28;20188;-67
2023/05/04 03:26:41;;;;;;;20.87;11.53;;;;;;;;;;5047190;28;20178;-67
2023/05/04 03:29:06;;;;;;;15.13;9.67;;;;;;;;;;5041896;28;20317;-66
2023/05/04 03:31:32;;;;;;;16.10;10.50;;;;;;;;;;5045578;28;20549;-67
2023/05/04 03:33:57;;;;;;;17.87;11.33;;;;;;;;;;5036117;28;20206;-67
2023/05/04 03:36:22;;;;;;;17.33;11.30;;;;;;;;;;5046982;28;20196;-67
2023/05/04 03:38:48;;;;;;;15.13;11.00;;;;;;;;;;5031807;28;20620;-67
2023/05/04 03:41:13;;;;;;;17.80;11.50;;;;;;;;;;5041060;28;20201;-67
2023/05/04 03:43:38;;;;;;;18.23;10.57;;;;;;;;;;5033899;28;20196;-67
2023/05/04 03:46:04;;;;;;;15.57;10.80;;;;;;;;;;5044925;28;20563;-67
2023/05/04 03:48:30;;;;;;;19.23;11.57;;;;;;;;;;5049331;28;20192;-68
2023/05/04 03:50:56;;;;;;;20.77;11.50;;;;;;;;;;5041262;28;20268;-66
2023/05/04 03:53:21;;;;;;;23.03;11.77;;;;;;;;;;5051236;28;20205;-67
2023/05/04 03:55:47;;;;;;;19.97;11.17;;;;;;;;;;5035051;28;20201;-67
2023/05/04 03:58:12;;;;;;;16.53;10.27;;;;;;;;;;5054499;28;20189;-66
2023/05/04 04:00:38;;;;;;;20.47;11.30;;;;;;;;;;5050761;28;20259;-66
2023/05/04 04:03:03;;;;;;;19.23;11.23;;;;;;;;;;5040547;28;20189;-66
2023/05/04 04:05:28;;;;;;;19.20;10.73;;;;;;;;;;5047375;28;20258;-68
2023/05/04 04:07:54;;;;;;;22.03;12.27;;;;;;;;;;5034815;28;20243;-66
2023/05/04 04:10:19;;;;;;;18.80;11.47;;;;;;;;;;5041969;28;20676;-67
2023/05/04 04:12:44;;;;;;;17.83;11.40;;;;;;;;;;5050329;28;20193;-66
2023/05/04 04:15:10;;;;;;;18.33;11.67;;;;;;;;;;5040833;28;20204;-66
2023/05/04 04:17:36;;;;;;;17.60;11.60;;;;;;;;;;5050667;28;20864;-67
2023/05/04 04:20:01;;;;;;;18.10;12.23;;;;;;;;;;5048039;28;20197;-67
2023/05/04 04:22:27;;;;;;;18.03;11.63;;;;;;;;;;5050921;28;20271;-66
2023/05/04 04:24:52;;;;;;;24.30;12.13;;;;;;;;;;5040308;28;20192;-66
2023/05/04 04:27:17;;;;;;;20.10;12.77;;;;;;;;;;5049859;28;20189;-66
2023/05/04 04:29:43;;;;;;;18.73;11.53;;;;;;;;;;5050100;28;20185;-66
2023/05/04 04:32:08;;;;;;;20.73;11.70;;;;;;;;;;5050496;28;20181;-66
2023/05/04 04:34:34;;;;;;;22.80;11.90;;;;;;;;;;5051250;28;20225;-65
2023/05/04 04:36:59;;;;;;;19.90;12.27;;;;;;;;;;5049709;28;20330;-66
2023/05/04 04:39:25;;;;;;;22.03;11.80;;;;;;;;;;5039828;28;20240;-66
2023/05/04 04:41:50;;;;;;;17.23;11.20;;;;;;;;;;5051489;28;20186;-65
2023/05/04 04:44:16;;;;;;;19.87;11.67;;;;;;;;;;5047409;28;20322;-66
2023/05/04 04:46:41;;;;;;;19.17;11.37;;;;;;;;;;5041238;28;20228;-67
2023/05/04 04:49:07;;;;;;;18.77;11.20;;;;;;;;;;5050491;28;20195;-67
2023/05/04 04:51:32;;;;;;;24.90;12.73;;;;;;;;;;5033670;28;20216;-67
2023/05/04 04:53:58;;;;;;;23.67;12.20;;;;;;;;;;5046211;28;20339;-67
2023/05/04 04:56:23;;;;;;;17.70;11.97;;;;;;;;;;5045554;28;20614;-67
2023/05/04 04:58:49;;;;;;;19.43;12.03;;;;;;;;;;5043485;28;20272;-66
2023/05/04 05:01:16;;;;;;;17.80;11.83;;;;;;;;;;5046012;28;20312;-66
2023/05/04 05:03:43;;;;;;;18.33;11.20;;;;;;;;;;5030750;28;20656;-66
2023/05/04 05:06:10;;;;;;;17.20;11.20;;;;;;;;;;5033621;28;20198;-66
2023/05/04 05:08:36;;;;;;;18.53;11.50;;;;;;;;;;5042278;28;20244;-66
2023/05/04 05:11:01;;;;;;;20.90;11.67;;;;;;;;;;5043359;28;20228;-66
2023/05/04 05:13:26;;;;;;;23.83;11.23;;;;;;;;;;5046696;28;20209;-65
2023/05/04 05:15:52;;;;;;;18.03;12.23;;;;;;;;;;5055345;28;20181;-66
2023/05/04 05:18:17;;;;;;;19.13;11.48;;;;;;;;;;5045437;28;20274;-66
2023/05/04 05:20:43;;;;;;;20.57;12.13;;;;;;;;;;5035760;28;20715;-66
2023/05/04 05:23:08;;;;;;;18.43;10.37;;;;;;;;;;5041303;28;20212;-67
2023/05/04 05:25:33;;;;;;;19.90;11.03;;;;;;;;;;5049758;28;20572;-66
2023/05/04 05:27:59;;;;;;;16.00;10.73;;;;;;;;;;5049902;28;20190;-66
2023/05/04 05:30:27;;;;;;;17.60;11.00;;;;;;;;;;5048657;28;20629;-67
2023/05/04 05:32:52;;;;;;;22.55;10.77;;;;;;;;;;5049301;28;20525;-67
2023/05/04 05:35:17;;;;;;;19.57;11.40;;;;;;;;;;5047510;28;20244;-67
2023/05/04 05:37:43;;;;;;;17.88;10.38;;;;;;;;;;5029717;28;20196;-67
2023/05/04 05:40:08;;;;;;;17.60;10.82;;;;;;;;;;5034128;28;20201;-67
2023/05/04 05:42:34;;;;;;;14.98;10.63;;;;;;;;;;5045977;28;20661;-67
2023/05/04 05:45:00;;;;;;;19.55;10.63;;;;;;;;;;5042317;28;20262;-67
2023/05/04 05:47:26;;;;;;;14.65;10.52;;;;;;;;;;5035048;28;20189;-67
2023/05/04 05:49:51;;;;;;;15.88;10.18;;;;;;;;;;5047075;28;20197;-67
2023/05/04 05:52:17;;;;;;;13.27;10.50;;;;;;;;;;5049668;28;20264;-67
2023/05/04 05:54:42;;;;;;;16.30;10.13;;;;;;;;;;5034178;28;20335;-67
2023/05/04 05:57:08;;;;;;;16.02;10.48;;;;;;;;;;5049399;28;20247;-67
2023/05/04 05:59:33;;;;;;;13.55;10.05;;;;;;;;;;5034662;28;20536;-67
2023/05/04 06:01:59;;;;;;;15.15;10.63;;;;;;;;;;5049288;28;20205;-67
2023/05/04 06:04:24;;;;;;;15.85;10.70;;;;;;;;;;5046821;28;20189;-67
2023/05/04 06:06:50;;;;;;;19.27;10.38;;;;;;;;;;5044872;28;20268;-67
2023/05/04 06:09:15;;;;;;;14.20;9.80;;;;;;;;;;5049578;28;20461;-67
2023/05/04 06:11:41;;;;;;;13.75;9.60;;;;;;;;;;5051120;28;20197;-67
2023/05/04 06:14:06;;;;;;;12.82;9.80;;;;;;;;;;5029859;28;20704;-66
2023/05/04 06:16:32;;;;;;;18.95;9.50;;;;;;;;;;5042957;28;20193;-67
2023/05/04 06:18:57;;;;;;;16.13;10.50;;;;;;;;;;5046670;28;20187;-66
2023/05/04 06:21:23;;;;;;;14.20;9.88;;;;;;;;;;5034652;28;20190;-66
2023/05/04 06:23:48;;;;;;;13.05;9.40;;;;;;;;;;5030366;28;20274;-66
2023/05/04 06:26:13;;;;;;;15.23;9.43;;;;;;;;;;5040562;28;20201;-67
2023/05/04 06:28:39;;;;;;;14.82;10.00;;;;;;;;;;5030073;28;20552;-68
2023/05/04 06:31:04;;;;;;;17.02;9.98;;;;;;;;;;5037912;28;20216;-67
2023/05/04 06:33:30;;;;;;;16.48;9.80;;;;;;;;;;5045034;28;20210;-68
2023/05/04 06:35:56;;;;;;;14.80;9.45;;;;;;;;;;5044266;28;20197;-67
2023/05/04 06:38:22;;;;;;;21.23;9.98;;;;;;;;;;5048802;28;20186;-67
2023/05/04 06:40:47;;;;;;;20.27;9.63;;;;;;;;;;5048330;28;20198;-68
2023/05/04 06:43:12;;;;;;;15.93;9.05;;;;;;;;;;5039521;28;20197;-67
2023/05/04 06:45:38;;;;;;;15.45;9.65;;;;;;;;;;5044869;28;20233;-67
2023/05/04 06:48:04;;;;;;;13.40;9.00;;;;;;;;;;5029011;28;20190;-68
2023/05/04 06:50:32;;;;;;;15.60;9.10;;;;;;;;;;5032423;28;20596;-67
2023/05/04 06:53:08;;;;;;;14.63;8.27;;;;;;;;;;5037641;28;20563;-68
2023/05/04 06:55:35;;;;;;;11.18;8.63;;;;;;;;;;5031060;28;20217;-68
2023/05/04 06:58:00;;;;;;;13.10;8.50;;;;;;;;;;5035039;28;20181;-68
2023/05/04 07:00:26;;;;;;;12.93;8.73;;;;;;;;;;5048679;28;20209;-68
2023/05/04 07:02:52;;;;;;;14.35;9.00;;;;;;;;;;5034221;28;20186;-67
2023/05/04 07:05:21;;;;;;;12.05;8.48;;;;;;;;;;5044626;28;20239;-68
2023/05/04 07:07:47;;;;;;;15.15;8.65;;;;;;;;;;5048351;28;20193;-69
2023/05/04 07:10:13;;;;;;;11.82;8.23;;;;;;;;;;5048602;28;20599;-67
2023/05/04 07:12:40;;;;;;;16.77;9.20;;;;;;;;;;5039849;28;20193;-69
2023/05/04 07:15:07;;;;;;;14.02;8.63;;;;;;;;;;5042553;28;20210;-68
2023/05/04 07:17:33;;;;;;;12.52;8.90;;;;;;;;;;5047824;28;20197;-67
2023/05/04 07:20:01;;;;;;;14.85;8.73;;;;;;;;;;5043404;28;20189;-68
2023/05/04 07:22:26;;;;;;;11.90;8.70;;;;;;;;;;5030628;28;20193;-68
2023/05/04 07:24:51;;;;;;;13.27;8.20;;;;;;;;;;5042020;28;20193;-68
2023/05/04 07:27:17;;;;;;;12.18;8.15;;;;;;;;;;5045171;28;20205;-67
2023/05/04 07:29:42;;;;;;;10.88;7.90;;;;;;;;;;5032702;28;20661;-68
2023/05/04 07:32:08;;;;;;;11.77;8.88;;;;;;;;;;5036699;28;20222;-68
2023/05/04 07:34:34;;;;;;;14.30;8.68;;;;;;;;;;5038880;28;20752;-68
2023/05/04 07:37:02;;;;;;;13.10;7.85;;;;;;;;;;5041265;28;20194;-68
2023/05/04 07:39:27;;;;;;;12.45;8.13;;;;;;;;;;5037733;28;20194;-68
2023/05/04 07:41:53;;;;;;;14.45;8.70;;;;;;;;;;5048424;28;20191;-68
2023/05/04 07:44:19;;;;;;;16.73;8.93;;;;;;;;;;5046643;28;20618;-69
2023/05/04 07:46:44;;;;;;;11.27;8.45;;;;;;;;;;5047625;28;20258;-68
2023/05/04 07:49:10;;;;;;;13.07;8.25;;;;;;;;;;5033440;28;20190;-68
2023/05/04 07:51:36;;;;;;;10.02;7.78;;;;;;;;;;5038250;28;20805;-69
2023/05/04 07:54:02;;;;;;;12.25;7.45;;;;;;;;;;5033382;28;20587;-68
2023/05/04 07:56:27;;;;;;;12.40;8.25;;;;;;;;;;5038973;28;20197;-68
2023/05/04 07:58:53;;;;;;;13.75;8.55;;;;;;;;;;5047555;28;20193;-68
2023/05/04 08:01:18;;;;;;;11.43;8.40;;;;;;;;;;5035257;28;20232;-68
2023/05/04 08:03:44;;;;;;;13.65;8.45;;;;;;;;;;5046883;28;20235;-69
2023/05/04 08:06:09;;;;;;;12.60;8.25;;;;;;;;;;5039503;28;20529;-68
2023/05/04 08:08:35;;;;;;;12.15;8.45;;;;;;;;;;5047889;28;20467;-68
2023/05/04 08:11:00;;;;;;;13.80;8.15;;;;;;;;;;5037384;28;20645;-68
2023/05/04 08:13:25;;;;;;;17.60;8.60;;;;;;;;;;5044962;28;20209;-68
2023/05/04 08:15:51;;;;;;;15.43;8.40;;;;;;;;;;5039496;28;20724;-68
2023/05/04 08:18:16;;;;;;;10.10;7.78;;;;;;;;;;5039255;28;20196;-67
2023/05/04 08:20:42;;;;;;;13.70;8.10;;;;;;;;;;5041918;28;20213;-68
2023/05/04 08:23:07;;;;;;;13.38;7.93;;;;;;;;;;5046830;28;20203;-67
2023/05/04 08:25:33;;;;;;;10.95;7.15;;;;;;;;;;5039145;28;20658;-67
2023/05/04 08:27:58;;;;;;;11.50;7.63;;;;;;;;;;5045689;28;20239;-68
2023/05/04 08:30:24;;;;;;;11.98;8.20;;;;;;;;;;5040478;28;20198;-68
2023/05/04 08:32:51;;;;;;;11.60;7.15;;;;;;;;;;5033913;28;20245;-67
2023/05/04 08:35:17;;;;;;;10.55;7.25;;;;;;;;;;5043312;28;20205;-68
2023/05/04 08:37:42;;;;;;;8.88;7.20;;;;;;;;;;5045438;28;20193;-68
2023/05/04 08:40:08;;;;;;;11.05;7.72;;;;;;;;;;5040062;28;20198;-68
2023/05/04 08:42:33;;;;;;;12.13;8.07;;;;;;;;;;5045168;28;20222;-68
2023/05/04 08:44:59;;;;;;;12.25;7.72;;;;;;;;;;5049760;28;20232;-68
2023/05/04 08:47:26;;;;;;;12.68;7.38;;;;;;;;;;5047883;28;20244;-68
2023/05/04 08:49:55;;;;;;;10.20;7.03;;;;;;;;;;5047677;28;20178;-67
2023/05/04 08:52:25;;;;;;;10.98;7.45;;;;;;;;;;5048399;28;20700;-67
2023/05/04 08:54:57;;;;;;;10.05;7.00;;;;;;;;;;5043160;28;20674;-67
2023/05/04 08:57:23;;;;;;;13.98;6.85;;;;;;;;;;5042996;28;20185;-67
2023/05/04 08:59:53;;;;;;;11.05;6.70;;;;;;;;;;5046145;28;20189;-67
2023/05/04 09:02:23;;;;;;;11.10;7.32;;;;;;;;;;5049737;28;20224;-67
2023/05/04 09:04:50;;;;;;;9.63;7.00;;;;;;;;;;5046823;28;20252;-66
2023/05/04 09:07:20;;;;;;;10.50;6.68;;;;;;;;;;5050436;28;20200;-67
2023/05/04 09:09:46;;;;;;;11.30;7.25;;;;;;;;;;5062302;28;20189;-67
2023/05/04 09:12:12;;;;;;;9.60;6.45;;;;;;;;;;5043465;28;20197;-67
2023/05/04 09:14:38;;;;;;;10.30;6.50;;;;;;;;;;5034557;28;20217;-68
2023/05/04 09:17:24;;;;;;;11.80;6.25;;;;;;;;;;5034162;28;20478;-68
2023/05/04 09:20:00;;;;;;;9.00;6.95;;;;;;;;;;5048789;28;20189;-68
2023/05/04 09:22:26;;;;;;;9.82;6.78;;;;;;;;;;5043130;28;20232;-67
2023/05/04 09:24:52;;;;;;;10.40;6.50;;;;;;;;;;5044194;28;20212;-68
2023/05/04 09:27:18;;;;;;;12.05;7.25;;;;;;;;;;5041045;28;20255;-67
2023/05/04 09:29:51;;;;;;;10.35;5.72;;;;;;;;;;5049459;28;20189;-68
2023/05/04 09:32:16;;;;;;;11.90;6.32;;;;;;;;;;5049896;28;20536;-68
2023/05/04 09:34:51;;;;;;;9.18;6.47;;;;;;;;;;5049357;28;20333;-68
2023/05/04 09:37:21;;;;;;;11.50;6.80;;;;;;;;;;5048537;28;20219;-67
2023/05/04 09:39:57;;;;;;;10.52;6.47;;;;;;;;;;5032252;28;20186;-67
2023/05/04 09:42:24;;;;;;;8.88;6.40;;;;;;;;;;5040742;28;20569;-68
2023/05/04 09:45:04;;;;;;;6.75;5.80;;;;;;;;;;5044820;28;20231;-71
2023/05/04 09:47:34;;;;;;;11.32;6.50;;;;;;;;;;5039970;28;20188;-67
2023/05/04 09:50:16;;;;;;;14.63;6.63;;;;;;;;;;5041422;28;20174;-67
2023/05/04 09:52:43;;;;;;;10.90;6.60;;;;;;;;;;5046748;28;20186;-69
2023/05/04 09:55:14;;;;;;;13.18;6.35;;;;;;;;;;5043959;28;20213;-68
2023/05/04 09:57:41;;;;;;;10.60;6.72;;;;;;;;;;5049324;28;20217;-68
2023/05/04 10:00:12;;;;;;;10.18;6.60;;;;;;;;;;5032850;28;20223;-68
2023/05/04 10:02:38;;;;;;;7.20;6.30;;;;;;;;;;5048447;28;20468;-69
2023/05/04 10:05:06;;;;;;;9.23;5.82;;;;;;;;;;5035206;28;20224;-67
2023/05/04 10:07:32;;;;;;;9.25;6.50;;;;;;;;;;5039360;28;20192;-68
2023/05/04 10:09:58;;;;;;;8.95;6.18;;;;;;;;;;5043538;28;20744;-68
2023/05/04 10:12:24;;;;;;;9.35;6.53;;;;;;;;;;5040752;28;20197;-69
2023/05/04 10:14:50;;;;;;;8.55;6.10;;;;;;;;;;5034550;28;20278;-68
2023/05/04 10:17:49;;;;;;;8.30;6.72;;;;;;;;;;5046929;28;20197;-70
2023/05/04 10:20:33;;;;;;;9.90;6.55;;;;;;;;;;5033773;28;20217;-69
2023/05/04 10:23:17;;;;;;;8.18;5.88;;;;;;;;;;5046119;28;20359;-69
2023/05/04 10:25:51;;;;;;;11.32;6.65;;;;;;;;;;5048558;28;20243;-68
2023/05/04 10:28:30;;;;;;;7.63;6.05;;;;;;;;;;5044995;28;20239;-68
2023/05/04 10:30:58;;;;;;;8.55;5.60;;;;;;;;;;5038715;28;20260;-69
2023/05/04 10:33:25;;;;;;;9.40;6.20;;;;;;;;;;5045016;28;20271;-68
2023/05/04 10:35:53;;;;;;;6.95;5.57;;;;;;;;;;5038395;28;20193;-69
2023/05/04 10:38:30;;;;;;;9.57;6.15;;;;;;;;;;5043453;28;20201;-69
2023/05/04 10:40:56;;;;;;;10.90;6.00;;;;;;;;;;5042780;28;20284;-68
2023/05/04 10:43:25;;;;;;;11.23;5.65;;;;;;;;;;5042729;28;20225;-69
2023/05/04 10:45:51;;;;;;;12.52;6.13;;;;;;;;;;5034514;28;20315;-69
2023/05/04 10:48:16;;;;;;;10.02;6.22;;;;;;;;;;5046591;28;20228;-68
2023/05/04 10:50:44;;;;;;;9.38;5.35;;;;;;;;;;5040008;28;20185;-68
2023/05/04 10:53:10;;;;;;;7.32;5.88;;;;;;;;;;5051269;28;20227;-68
2023/05/04 10:55:40;;;;;;;8.38;5.28;;;;;;;;;;5048575;28;20201;-70
2023/05/04 10:58:06;;;;;;;9.35;5.93;;;;;;;;;;5033678;28;20277;-69
2023/05/04 11:00:36;;;;;;;7.63;5.43;;;;;;;;;;5039528;28;20291;-67
2023/05/04 11:03:02;;;;;;;7.38;5.53;;;;;;;;;;5043924;28;20244;-68
2023/05/04 11:05:53;;;;;;;11.50;6.05;;;;;;;;;;5038707;28;20194;-70
2023/05/04 11:08:25;;;;;;;8.80;5.60;;;;;;;;;;5041500;28;20684;-69
2023/05/04 11:11:05;;;;;;;9.13;5.72;;;;;;;;;;5028800;28;20924;-69
2023/05/04 11:13:33;;;;;;;9.02;5.75;;;;;;;;;;5044102;28;20209;-67
2023/05/04 11:15:59;;;;;;;7.93;5.38;;;;;;;;;;5035186;28;20182;-68
2023/05/04 11:18:27;;;;;;;10.13;5.72;;;;;;;;;;5043116;28;20193;-69
2023/05/04 11:20:53;;;;;;;12.00;6.22;;;;;;;;;;5041513;28;20186;-69
2023/05/04 11:23:18;;;;;;;7.80;5.57;;;;;;;;;;5036526;28;20340;-68
2023/05/04 11:25:44;;;;;;;10.88;6.22;;;;;;;;;;5047979;28;20716;-69
2023/05/04 11:28:09;;;;;;;9.07;6.10;;;;;;;;;;5045219;28;20193;-69
2023/05/04 11:30:35;;;;;;;12.57;5.90;;;;;;;;;;5033046;28;20272;-71
2023/05/04 11:33:03;;;;;;;9.25;5.75;;;;;;;;;;5041179;28;20189;-69
2023/05/04 11:35:29;;;;;;;9.80;6.13;;;;;;;;;;5032305;28;20196;-66
2023/05/04 11:37:55;;;;;;;13.10;5.85;;;;;;;;;;5034910;28;20272;-68
2023/05/04 11:40:23;;;;;;;11.85;5.93;;;;;;;;;;5048205;28;20193;-69
2023/05/04 11:42:49;;;;;;;6.50;5.55;;;;;;;;;;5041318;28;20185;-70
2023/05/04 11:45:21;;;;;;;9.25;6.75;;;;;;;;;;5028180;28;20717;-69
2023/05/04 11:47:47;;;;;;;7.18;5.30;;;;;;;;;;5044447;28;20194;-69
2023/05/04 11:50:15;;;;;;;8.80;5.78;;;;;;;;;;5046569;28;20194;-68
2023/05/04 11:52:40;;;;;;;12.38;6.18;;;;;;;;;;5043337;28;20673;-69
2023/05/04 11:55:08;;;;;;;9.10;6.07;;;;;;;;;;5041588;28;20259;-69
2023/05/04 11:57:36;;;;;;;10.80;6.38;;;;;;;;;;5041025;28;20616;-70
2023/05/04 12:00:04;;;;;;;8.50;6.00;;;;;;;;;;5039685;28;20182;-69
2023/05/04 12:02:29;;;;;;;11.48;6.28;;;;;;;;;;5030419;28;20201;-68
2023/05/04 12:04:55;;;;;;;9.20;5.95;;;;;;;;;;5043198;28;20205;-68
2023/05/04 12:07:20;;;;;;;8.77;5.88;;;;;;;;;;5047275;28;20230;-68
2023/05/04 12:09:46;;;;;;;10.68;5.97;;;;;;;;;;5046579;28;20277;-68
2023/05/04 12:12:15;;;;;;;11.85;5.75;;;;;;;;;;5032125;28;20182;-67
2023/05/04 12:14:56;;;;;;;11.73;5.72;;;;;;;;;;5048447;28;20286;-67
2023/05/04 12:17:23;;;;;;;9.60;5.90;;;;;;;;;;5041380;28;20190;-68
2023/05/04 12:19:54;;;;;;;8.43;5.70;;;;;;;;;;5034902;28;20252;-70
2023/05/04 12:22:27;;;;;;;8.70;6.20;;;;;;;;;;5034415;28;20190;-69
2023/05/04 12:24:56;;;;;;;10.77;6.15;;;;;;;;;;5035101;28;20189;-70
2023/05/04 12:27:21;;;;;;;9.77;5.80;;;;;;;;;;5046653;28;20566;-69
2023/05/04 12:29:46;;;;;;;8.05;5.63;;;;;;;;;;5036895;28;20194;-69
2023/05/04 12:32:12;;;;;;;8.60;5.65;;;;;;;;;;5044333;28;20198;-69
2023/05/04 12:34:37;;;;;;;9.23;5.50;;;;;;;;;;5058622;28;20231;-69
2023/05/04 12:37:03;;;;;;;10.68;5.30;;;;;;;;;;5046368;28;20193;-68
2023/05/04 12:39:30;;;;;;;8.60;4.85;;;;;;;;;;5038358;28;20280;-69
2023/05/04 12:41:56;;;;;;;6.90;5.35;;;;;;;;;;5049463;28;20227;-69
2023/05/04 12:44:21;;;;;;;9.63;4.55;;;;;;;;;;5051422;28;20188;-68
2023/05/04 12:46:47;;;;;;;12.27;5.40;;;;;;;;;;5050491;28;20310;-68
2023/05/04 12:49:13;;;;;;;9.68;4.70;;;;;;;;;;5044603;28;20234;-66
2023/05/04 12:51:38;;;;;;;9.68;4.82;;;;;;;;;;5038627;28;20189;-67
2023/05/04 12:54:05;;;;;;;9.00;4.93;;;;;;;;;;5050371;28;20229;-69
2023/05/04 12:56:32;;;;;;;7.70;5.00;;;;;;;;;;5044755;28;20186;-69
2023/05/04 12:58:57;;;;;;;8.65;4.22;;;;;;;;;;5043006;28;20259;-67
2023/05/04 13:01:23;;;;;;;7.68;4.43;;;;;;;;;;5049649;28;20209;-67
2023/05/04 13:03:48;;;;;;;9.75;4.45;;;;;;;;;;5050592;28;20177;-69
2023/05/04 13:06:13;;;;;;;7.22;4.05;;;;;;;;;;5043880;28;20724;-68
2023/05/04 13:08:39;;;;;;;7.63;3.92;;;;;;;;;;5039775;28;20185;-69
2023/05/04 13:11:04;;;;;;;10.13;4.82;;;;;;;;;;5036515;28;20511;-69
2023/05/04 13:13:29;;;;;;;6.47;3.80;;;;;;;;;;5036813;28;20512;-69
2023/05/04 13:15:55;;;;;;;11.30;5.15;;;;;;;;;;5038018;28;20244;-69
2023/05/04 13:18:25;;;;;;;7.50;3.88;;;;;;;;;;5043641;28;20178;-70
2023/05/04 13:20:54;;;;;;;8.23;4.32;;;;;;;;;;5043907;28;20189;-68
2023/05/04 13:23:20;;;;;;;7.88;4.40;;;;;;;;;;5046140;28;20612;-69
2023/05/04 13:25:46;;;;;;;7.85;4.35;;;;;;;;;;5040044;28;20195;-68
2023/05/04 13:28:12;;;;;;;5.75;4.00;;;;;;;;;;5047565;28;20327;-67
2023/05/04 13:30:37;;;;;;;7.03;3.95;;;;;;;;;;5030041;28;20265;-67
2023/05/04 13:33:02;;;;;;;9.02;3.72;;;;;;;;;;5032888;28;20186;-68
2023/05/04 13:35:28;;;;;;;7.93;4.05;;;;;;;;;;5047098;28;20220;-68
2023/05/04 13:37:53;;;;;;;6.75;4.40;;;;;;;;;;5042776;28;20182;-68
2023/05/04 13:40:19;;;;;;;6.68;4.53;;;;;;;;;;5050760;28;20541;-68
2023/05/04 13:42:44;;;;;;;7.03;4.53;;;;;;;;;;5044894;28;20324;-68
2023/05/04 13:45:10;;;;;;;7.78;4.57;;;;;;;;;;5040486;28;20308;-69
2023/05/04 13:47:36;;;;;;;7.13;4.53;;;;;;;;;;5032345;28;20242;-69
2023/05/04 13:50:01;;;;;;;11.30;4.43;;;;;;;;;;5052466;28;20181;-68
2023/05/04 13:52:27;;;;;;;9.55;4.72;;;;;;;;;;5046128;28;20186;-67
2023/05/04 13:54:52;;;;;;;9.05;4.18;;;;;;;;;;5046001;28;20576;-68
2023/05/04 13:57:18;;;;;;;7.85;4.03;;;;;;;;;;5049742;28;20196;-68
2023/05/04 13:59:43;;;;;;;8.73;4.13;;;;;;;;;;5043923;28;20183;-68
2023/05/04 14:02:09;;;;;;;8.07;4.18;;;;;;;;;;5038403;28;20543;-68
2023/05/04 14:04:34;;;;;;;8.40;4.75;;;;;;;;;;5046127;28;20316;-69
2023/05/04 14:06:59;;;;;;;5.72;4.22;;;;;;;;;;5039426;28;20203;-67
2023/05/04 14:09:25;;;;;;;5.22;4.13;;;;;;;;;;5045914;28;20194;-69
2023/05/04 14:11:50;;;;;;;8.02;4.53;;;;;;;;;;5035926;28;20258;-66
2023/05/04 14:14:16;;;;;;;8.38;5.13;;;;;;;;;;5049388;28;20683;-68
2023/05/04 14:16:41;;;;;;;6.63;4.20;;;;;;;;;;5042656;28;20622;-67
2023/05/04 14:19:06;;;;;;;7.32;4.28;;;;;;;;;;5047353;28;20275;-67
2023/05/04 14:21:32;;;;;;;7.35;4.47;;;;;;;;;;5043123;28;20224;-67
2023/05/04 14:23:57;;;;;;;6.18;5.00;;;;;;;;;;5046806;28;20173;-66
2023/05/04 14:26:23;;;;;;;7.53;4.65;;;;;;;;;;5034844;28;20194;-67
2023/05/04 14:28:48;;;;;;;9.60;4.90;;;;;;;;;;5048708;28;20231;-68